createdAt,value
2023-03-17T00:00:00.596Z,6.80
2023-03-17T00:03:05.262Z,7.00
2023-03-17T00:06:16.782Z,7.80
2023-03-17T00:09:21.068Z,7.30
2023-03-17T00:12:24.914Z,8.10
2023-03-17T00:15:28.096Z,7.90
2023-03-17T00:18:31.794Z,8.00
2023-03-17T00:21:35.811Z,8.30
2023-03-17T00:24:38.653Z,8.00
2023-03-17T00:27:41.315Z,8.60
2023-03-17T00:30:44.844Z,7.90
2023-03-17T00:33:49.888Z,7.60
2023-03-17T00:36:52.624Z,7.50
2023-03-17T00:39:56.313Z,8.20
2023-03-17T00:43:03.333Z,7.80
2023-03-17T00:46:14.768Z,8.00
2023-03-17T00:49:21.274Z,8.20
2023-03-17T00:52:24.228Z,9.30
2023-03-17T00:55:27.194Z,10.10
2023-03-17T00:58:32.919Z,9.30
2023-03-17T01:01:39.825Z,9.00
2023-03-17T01:04:49.923Z,9.10
2023-03-17T01:07:57.514Z,9.60
2023-03-17T01:11:00.610Z,8.50
2023-03-17T01:14:03.563Z,7.70
2023-03-17T01:17:27.902Z,8.50
2023-03-17T01:20:33.016Z,7.80
2023-03-17T01:23:35.776Z,7.30
2023-03-17T01:26:39.079Z,7.30
2023-03-17T01:29:45.380Z,7.30
2023-03-17T01:32:48.267Z,7.60
2023-03-17T01:35:51.394Z,7.80
2023-03-17T01:38:54.155Z,7.80
2023-03-17T01:42:01.587Z,8.20
2023-03-17T01:45:28.598Z,7.80
2023-03-17T01:48:37.338Z,7.50
2023-03-17T01:51:51.462Z,7.70
2023-03-17T01:55:03.190Z,7.70
2023-03-17T01:58:07.261Z,8.70
2023-03-17T02:01:10.923Z,8.20
2023-03-17T02:04:40.769Z,8.40
2023-03-17T02:07:45.244Z,8.10
2023-03-17T02:10:50.460Z,8.10
2023-03-17T02:13:53.636Z,7.70
2023-03-17T02:16:57.439Z,7.90
2023-03-17T02:20:17.373Z,7.80
2023-03-17T02:23:23.448Z,8.10
2023-03-17T02:26:28.483Z,8.50
2023-03-17T02:29:34.146Z,8.50
2023-03-17T02:32:37.783Z,7.90
2023-03-17T02:35:41.521Z,8.40
2023-03-17T02:38:44.226Z,9.00
2023-03-17T02:41:47.106Z,9.00
2023-03-17T02:44:50.693Z,8.30
2023-03-17T02:47:55.043Z,8.20
2023-03-17T02:50:57.746Z,9.30
2023-03-17T02:54:00.749Z,9.30
2023-03-17T02:57:03.913Z,8.40
2023-03-17T03:00:10.450Z,8.30
2023-03-17T03:03:13.514Z,7.90
2023-03-17T03:06:17.023Z,8.70
2023-03-17T03:09:20.935Z,7.40
2023-03-17T03:12:23.704Z,8.10
2023-03-17T03:15:26.363Z,7.90
2023-03-17T03:18:29.128Z,8.00
2023-03-17T03:21:32.248Z,8.30
2023-03-17T03:24:35.554Z,7.00
2023-03-17T03:27:38.867Z,9.10
2023-03-17T03:30:41.814Z,8.80
2023-03-17T03:33:44.652Z,7.90
2023-03-17T03:36:47.394Z,7.40
2023-03-17T03:39:50.100Z,8.10
2023-03-17T03:42:52.972Z,7.30
2023-03-17T03:45:55.798Z,7.40
2023-03-17T03:48:58.477Z,7.60
2023-03-17T03:52:04.735Z,8.10
2023-03-17T03:55:09.060Z,7.30
2023-03-17T03:58:11.724Z,7.50
2023-03-17T04:01:14.552Z,7.80
2023-03-17T04:04:17.307Z,7.30
2023-03-17T04:07:21.431Z,7.40
2023-03-17T04:10:24.218Z,7.90
2023-03-17T04:13:27.416Z,6.70
2023-03-17T04:16:30.168Z,7.70
2023-03-17T04:19:32.922Z,7.50
2023-03-17T04:22:35.561Z,7.10
2023-03-17T04:25:38.390Z,6.90
2023-03-17T04:28:41.113Z,7.20
2023-03-17T04:31:43.876Z,7.40
2023-03-17T04:34:46.547Z,7.50
2023-03-17T04:37:50.080Z,7.30
2023-03-17T04:40:52.712Z,7.10
2023-03-17T04:43:55.385Z,8.10
2023-03-17T04:47:03.501Z,7.80
2023-03-17T04:50:09.006Z,7.50
2023-03-17T04:53:11.643Z,7.70
2023-03-17T04:56:14.621Z,7.60
2023-03-17T04:59:17.344Z,7.90
2023-03-17T05:02:20.094Z,7.70
2023-03-17T05:05:22.832Z,8.30
2023-03-17T05:08:28.381Z,7.50
2023-03-17T05:11:32.343Z,8.20
2023-03-17T05:14:35.091Z,7.20
2023-03-17T05:17:38.522Z,7.50
2023-03-17T05:20:41.503Z,7.80
2023-03-17T05:23:44.259Z,7.10
2023-03-17T05:26:46.952Z,6.90
2023-03-17T05:29:49.840Z,7.70
2023-03-17T05:32:52.670Z,7.30
2023-03-17T05:35:55.366Z,7.00
2023-03-17T05:38:58.557Z,7.30
2023-03-17T05:42:01.270Z,6.60
2023-03-17T05:45:05.765Z,6.70
2023-03-17T05:48:08.603Z,6.70
2023-03-17T05:51:11.502Z,7.10
2023-03-17T05:54:14.257Z,6.70
2023-03-17T05:57:17.048Z,6.30
2023-03-17T06:00:21.750Z,7.30
2023-03-17T06:03:24.614Z,7.00
2023-03-17T06:06:27.961Z,7.00
2023-03-17T06:09:31.490Z,7.90
2023-03-17T06:12:34.568Z,7.30
2023-03-17T06:15:38.072Z,7.50
2023-03-17T06:18:41.239Z,7.50
2023-03-17T06:21:43.961Z,7.20
2023-03-17T06:24:46.588Z,6.80
2023-03-17T06:27:53.214Z,7.00
2023-03-17T06:30:56.338Z,6.90
2023-03-17T06:33:59.055Z,7.30
2023-03-17T06:37:01.759Z,6.70
2023-03-17T06:40:09.141Z,6.40
2023-03-17T06:43:12.363Z,6.60
2023-03-17T06:46:15.159Z,5.70
2023-03-17T06:49:18.058Z,5.30
2023-03-17T06:52:20.914Z,5.10
2023-03-17T06:55:23.640Z,4.80
2023-03-17T06:58:26.484Z,5.30
2023-03-17T07:01:29.204Z,5.20
2023-03-17T07:04:32.062Z,5.90
2023-03-17T07:07:35.851Z,5.50
2023-03-17T07:10:41.258Z,5.40
2023-03-17T07:13:45.348Z,6.00
2023-03-17T07:16:48.612Z,6.20
2023-03-17T07:19:52.530Z,6.40
2023-03-17T07:22:55.210Z,5.90
2023-03-17T07:25:58.100Z,6.20
2023-03-17T07:29:01.450Z,5.50
2023-03-17T07:32:06.543Z,6.00
2023-03-17T07:35:09.312Z,5.80
2023-03-17T07:38:12.150Z,5.30
2023-03-17T07:41:14.889Z,5.30
2023-03-17T07:44:17.584Z,5.40
2023-03-17T07:47:20.606Z,4.70
2023-03-17T07:50:23.578Z,5.20
2023-03-17T07:53:26.512Z,5.10
2023-03-17T07:56:31.133Z,4.90
2023-03-17T07:59:34.317Z,4.60
2023-03-17T08:02:37.601Z,5.40
2023-03-17T08:05:41.172Z,5.20
2023-03-17T08:08:43.966Z,5.10
2023-03-17T08:11:46.946Z,5.20
2023-03-17T08:14:50.672Z,6.10
2023-03-17T08:17:54.308Z,5.00
2023-03-17T08:20:57.171Z,5.80
2023-03-17T08:24:01.298Z,5.00
2023-03-17T08:27:04.260Z,5.40
2023-03-17T08:30:07.881Z,6.00
2023-03-17T08:33:11.138Z,5.60
2023-03-17T08:36:14.500Z,5.20
2023-03-17T08:39:17.560Z,5.60
2023-03-17T08:42:29.368Z,5.70
2023-03-17T08:45:32.740Z,4.90
2023-03-17T08:48:37.389Z,5.30
2023-03-17T08:51:40.944Z,5.00
2023-03-17T08:54:43.869Z,5.00
2023-03-17T08:57:46.546Z,5.00
2023-03-17T09:00:49.608Z,5.40
2023-03-17T09:03:54.842Z,5.20
2023-03-17T09:07:06.189Z,4.90
2023-03-17T09:10:11.054Z,5.10
2023-03-17T09:13:14.107Z,4.80
2023-03-17T09:16:18.281Z,5.30
2023-03-17T09:19:21.967Z,5.40
2023-03-17T09:22:24.669Z,4.90
2023-03-17T09:25:27.589Z,5.50
2023-03-17T09:28:30.277Z,5.60
2023-03-17T09:31:33.932Z,5.80
2023-03-17T09:34:36.905Z,5.70
2023-03-17T09:37:39.750Z,5.40
2023-03-17T09:40:49.410Z,5.20
2023-03-17T09:44:03.170Z,5.40
2023-03-17T09:47:36.131Z,5.40
2023-03-17T09:51:01.905Z,5.20
2023-03-17T09:54:11.246Z,4.90
2023-03-17T09:57:32.538Z,5.20
2023-03-17T10:00:35.784Z,5.30
2023-03-17T10:03:39.080Z,5.00
2023-03-17T10:06:46.704Z,5.90
2023-03-17T10:10:03.140Z,4.70
2023-03-17T10:13:51.135Z,4.90
2023-03-17T10:16:57.772Z,4.00
2023-03-17T10:20:14.469Z,3.80
2023-03-17T10:23:21.860Z,4.00
2023-03-17T10:26:39.854Z,3.90
2023-03-17T10:29:43.008Z,3.80
2023-03-17T10:32:46.899Z,4.20
2023-03-17T10:35:49.824Z,4.30
2023-03-17T10:38:54.467Z,4.50
2023-03-17T10:42:15.609Z,4.00
2023-03-17T10:45:27.889Z,3.70
2023-03-17T10:48:35.975Z,4.60
2023-03-17T10:51:40.751Z,3.20
2023-03-17T10:54:48.490Z,3.90
2023-03-17T10:58:07.945Z,4.00
2023-03-17T11:01:21.859Z,3.00
2023-03-17T11:04:33.770Z,3.50
2023-03-17T11:07:40.507Z,3.60
2023-03-17T11:10:44.464Z,3.50
2023-03-17T11:13:48.272Z,3.80
2023-03-17T11:16:56.948Z,3.20
2023-03-17T11:23:37.752Z,3.50
2023-03-17T11:26:45.296Z,3.20
2023-03-17T11:29:58.358Z,2.80
2023-03-17T11:33:12.210Z,3.00
2023-03-17T11:36:43.475Z,2.80
2023-03-17T11:40:01.156Z,2.70
2023-03-17T11:43:19.253Z,2.90
2023-03-17T11:46:42.361Z,3.10
2023-03-17T11:49:59.081Z,3.20
2023-03-17T11:53:17.179Z,2.80
2023-03-17T11:56:50.661Z,3.30
2023-03-17T12:00:22.803Z,3.20
2023-03-17T12:03:40.260Z,3.10
2023-03-17T12:06:50.752Z,3.00
2023-03-17T12:10:16.385Z,3.40
2023-03-17T12:13:29.423Z,3.40
2023-03-17T12:16:37.332Z,2.60
2023-03-17T12:19:46.498Z,2.80
2023-03-17T12:22:57.146Z,2.50
2023-03-17T12:26:08.169Z,2.60
2023-03-17T12:29:37.838Z,2.60
2023-03-17T12:32:46.790Z,2.40
2023-03-17T12:35:49.600Z,2.60
2023-03-17T12:39:02.559Z,2.80
2023-03-17T12:42:26.610Z,2.40
2023-03-17T12:45:32.670Z,2.60
2023-03-17T12:49:24.424Z,2.60
2023-03-17T12:52:37.688Z,2.40
2023-03-17T12:55:50.447Z,2.40
2023-03-17T12:58:58.756Z,2.40
2023-03-17T13:02:35.669Z,2.00
2023-03-17T13:05:38.662Z,2.40
2023-03-17T13:08:42.253Z,2.90
2023-03-17T13:11:48.618Z,3.00
2023-03-17T13:14:52.128Z,2.70
2023-03-17T13:18:16.249Z,2.70
2023-03-17T13:21:22.766Z,2.60
2023-03-17T13:24:36.622Z,2.80
2023-03-17T13:27:39.256Z,3.20
2023-03-17T13:31:02.403Z,3.00
2023-03-17T13:34:18.443Z,2.60
2023-03-17T13:37:27.369Z,2.00
2023-03-17T13:40:30.414Z,2.50
2023-03-17T13:43:44.125Z,2.70
2023-03-17T13:46:48.328Z,2.20
2023-03-17T13:49:58.136Z,2.40
2023-03-17T13:53:05.013Z,2.70
2023-03-17T13:56:46.927Z,2.60
2023-03-17T14:00:05.685Z,2.50
2023-03-17T14:03:30.885Z,2.60
2023-03-17T14:06:37.946Z,2.50
2023-03-17T14:09:42.422Z,3.10
2023-03-17T14:12:58.125Z,2.90
2023-03-17T14:16:05.337Z,3.30
2023-03-17T14:19:20.237Z,3.00
2023-03-17T14:22:24.916Z,2.80
2023-03-17T14:25:35.712Z,3.30
2023-03-17T14:28:48.094Z,3.10
2023-03-17T14:32:04.479Z,3.10
2023-03-17T14:35:13.451Z,3.10
2023-03-17T14:38:19.992Z,2.90
2023-03-17T14:41:27.128Z,2.70
2023-03-17T14:45:04.653Z,3.40
2023-03-17T14:48:15.574Z,3.10
2023-03-17T14:51:39.622Z,3.20
2023-03-17T14:54:42.430Z,3.20
2023-03-17T14:57:52.834Z,3.00
2023-03-17T15:01:02.426Z,3.20
2023-03-17T15:04:15.812Z,3.60
2023-03-17T15:07:40.466Z,3.10
2023-03-17T15:10:43.800Z,3.00
2023-03-17T15:13:47.523Z,3.40
2023-03-17T15:16:52.740Z,2.90
2023-03-17T15:20:00.074Z,4.20
2023-03-17T15:23:14.826Z,4.10
2023-03-17T15:26:33.115Z,4.30
2023-03-17T15:29:35.857Z,4.20
2023-03-17T15:32:40.171Z,4.20
2023-03-17T15:35:42.981Z,4.10
2023-03-17T15:38:45.775Z,3.80
2023-03-17T15:41:48.545Z,3.90
2023-03-17T15:44:52.487Z,4.10
2023-03-17T15:47:55.792Z,3.80
2023-03-17T15:51:00.285Z,3.80
2023-03-17T15:54:03.267Z,3.90
2023-03-17T15:57:06.323Z,4.10
2023-03-17T16:00:14.983Z,4.00
2023-03-17T16:03:34.961Z,4.20
2023-03-17T16:06:37.680Z,4.20
2023-03-17T16:09:40.342Z,5.40
2023-03-17T16:12:46.141Z,5.20
2023-03-17T16:15:57.661Z,4.30
2023-03-17T16:19:00.836Z,4.70
2023-03-17T16:22:03.565Z,5.00
2023-03-17T16:25:19.133Z,4.30
2023-03-17T16:28:27.565Z,4.60
2023-03-17T16:31:30.903Z,4.80
2023-03-17T16:34:33.642Z,5.10
2023-03-17T16:37:36.374Z,5.00
2023-03-17T16:40:39.619Z,5.30
2023-03-17T16:43:44.373Z,5.80
2023-03-17T16:46:47.900Z,6.00
2023-03-17T16:49:50.607Z,6.50
2023-03-17T16:52:54.324Z,6.80
2023-03-17T16:55:57.180Z,9.20
2023-03-17T16:59:00.399Z,8.50
2023-03-17T17:02:03.228Z,6.90
2023-03-17T17:05:21.614Z,7.30
2023-03-17T17:08:24.462Z,6.60
2023-03-17T17:11:27.160Z,7.00
2023-03-17T17:14:29.835Z,6.90
2023-03-17T17:17:38.443Z,7.50
2023-03-17T17:23:45.950Z,8.20
2023-03-17T17:26:48.745Z,8.40
2023-03-17T17:29:51.483Z,8.10
2023-03-17T17:32:57.167Z,8.80
2023-03-17T17:36:00.457Z,8.90
2023-03-17T17:39:03.723Z,8.60
2023-03-17T17:42:06.705Z,9.10
2023-03-17T17:45:10.271Z,8.80
2023-03-17T17:48:13.021Z,8.30
2023-03-17T17:51:15.875Z,9.40
2023-03-17T17:54:18.632Z,9.30
2023-03-17T17:57:21.351Z,9.80
2023-03-17T18:00:25.876Z,10.20
2023-03-17T18:03:29.735Z,11.00
2023-03-17T18:06:33.743Z,10.60
2023-03-17T18:09:36.549Z,10.90
2023-03-17T18:12:39.334Z,11.40
2023-03-17T18:15:42.651Z,11.80
2023-03-17T18:18:47.247Z,11.20
2023-03-17T18:21:50.170Z,12.10
2023-03-17T18:25:18.213Z,12.20
2023-03-17T18:28:21.274Z,12.90
2023-03-17T18:31:29.273Z,12.80
2023-03-17T18:34:37.849Z,13.00
2023-03-17T18:37:41.234Z,12.20
2023-03-17T18:40:46.578Z,13.00
2023-03-17T18:43:49.286Z,12.70
2023-03-17T18:46:52.170Z,11.70
2023-03-17T18:49:58.246Z,11.80
2023-03-17T18:53:01.075Z,12.60
2023-03-17T18:56:03.972Z,10.90
2023-03-17T18:59:06.770Z,11.70
2023-03-17T19:02:09.416Z,11.00
2023-03-17T19:05:12.948Z,13.70
2023-03-17T19:08:16.759Z,11.30
2023-03-17T19:11:21.731Z,11.70
2023-03-17T19:14:24.519Z,11.80
2023-03-17T19:17:37.336Z,13.20
2023-03-17T19:20:40.141Z,12.70
2023-03-17T19:23:43.255Z,12.60
2023-03-17T19:26:46.617Z,13.10
2023-03-17T19:29:49.407Z,13.40
2023-03-17T19:32:52.141Z,12.70
2023-03-17T19:35:57.262Z,12.70
2023-03-17T19:38:59.962Z,11.60
2023-03-17T19:42:02.713Z,12.50
2023-03-17T19:45:06.123Z,12.50
2023-03-17T19:48:15.739Z,11.20
2023-03-17T19:51:18.469Z,11.70
2023-03-17T19:54:23.395Z,10.80
2023-03-17T19:57:27.306Z,10.20
2023-03-17T20:00:30.265Z,10.70
2023-03-17T20:03:35.448Z,11.10
2023-03-17T20:06:40.098Z,11.20
2023-03-17T20:09:48.030Z,10.90
2023-03-17T20:12:50.803Z,10.60
2023-03-17T20:15:55.394Z,10.80
2023-03-17T20:19:01.487Z,11.20
2023-03-17T20:22:04.258Z,12.50
2023-03-17T20:25:09.178Z,11.80
2023-03-17T20:28:12.979Z,11.80
2023-03-17T20:31:16.243Z,12.10
2023-03-17T20:34:20.298Z,12.20
2023-03-17T20:37:24.823Z,11.90
2023-03-17T20:40:27.692Z,12.10
2023-03-17T20:43:34.265Z,13.10
2023-03-17T20:46:42.621Z,11.30
2023-03-17T20:49:47.711Z,12.20
2023-03-17T20:52:51.362Z,12.30
2023-03-17T20:55:55.357Z,12.10
2023-03-17T20:59:01.305Z,12.00
2023-03-17T21:02:05.006Z,11.30
2023-03-17T21:05:13.756Z,11.20
2023-03-17T21:08:17.210Z,10.70
2023-03-17T21:11:23.105Z,10.90
2023-03-17T21:14:26.162Z,10.50
2023-03-17T21:17:30.899Z,10.50
2023-03-17T21:20:38.438Z,10.30
2023-03-17T21:23:41.852Z,10.80
2023-03-17T21:26:45.640Z,10.70
2023-03-17T21:29:51.443Z,10.40
2023-03-17T21:32:57.548Z,11.30
2023-03-17T21:36:02.874Z,11.30
2023-03-17T21:39:06.004Z,10.00
2023-03-17T21:42:09.787Z,11.90
2023-03-17T21:45:12.801Z,10.60
2023-03-17T21:48:15.771Z,11.40
2023-03-17T21:51:18.906Z,11.20
2023-03-17T21:54:21.844Z,10.70
2023-03-17T21:57:27.898Z,9.80
2023-03-17T22:00:39.405Z,9.80
2023-03-17T22:03:49.021Z,10.90
2023-03-17T22:06:52.430Z,9.80
2023-03-17T22:09:57.141Z,10.70
2023-03-17T22:13:00.778Z,9.70
2023-03-17T22:16:04.587Z,10.70
2023-03-17T22:19:10.063Z,9.90
2023-03-17T22:22:12.752Z,10.10
2023-03-17T22:25:15.472Z,10.10
2023-03-17T22:28:19.898Z,10.00
2023-03-17T22:31:26.415Z,9.80
2023-03-17T22:34:29.673Z,10.50
2023-03-17T22:37:32.605Z,11.20
2023-03-17T22:40:38.790Z,10.30
2023-03-17T22:43:42.807Z,11.30
2023-03-17T22:46:45.567Z,11.30
2023-03-17T22:49:49.130Z,11.30
2023-03-17T22:52:51.935Z,11.10
2023-03-17T22:55:54.795Z,10.90
2023-03-17T22:58:57.466Z,10.30
2023-03-17T23:02:00.243Z,9.90
2023-03-17T23:05:02.957Z,10.60
2023-03-17T23:08:05.727Z,9.80
2023-03-17T23:11:12.441Z,10.00
2023-03-17T23:14:15.462Z,9.80
2023-03-17T23:17:18.106Z,10.50
2023-03-17T23:20:27.085Z,10.20
2023-03-17T23:23:30.424Z,9.60
2023-03-17T23:26:36.107Z,10.20
2023-03-17T23:29:38.783Z,9.20
2023-03-17T23:32:42.940Z,10.50
2023-03-17T23:35:46.322Z,9.90
2023-03-17T23:38:50.316Z,8.90
2023-03-17T23:41:52.980Z,8.70
2023-03-17T23:44:58.169Z,9.30
2023-03-17T23:48:01.065Z,9.10
2023-03-17T23:51:03.951Z,9.40
2023-03-17T23:54:11.280Z,9.50
2023-03-17T23:57:14.654Z,8.50
